Time;durP1;ratioP1;P1;durP2;ratioP2;P2;SDS_P1;SDS_P2;PMS_P1;PMS_P2;Temp;Humidity;BMP_temperature;BMP_pressure;BME280_temperature;BME280_humidity;BME280_pressure;Samples;Min_cycle;Max_cycle;Signal;HPM_P1;HPM_P2
2022/11/20 00:01:28;;;;;;;3.17;1.30;;;;;;;5.51;100.00;95889.41;5090972;28;20196;-79
2022/11/20 00:03:57;;;;;;;1.70;1.33;;;;;;;5.51;100.00;95878.69;5080290;28;20237;-76
2022/11/20 00:06:27;;;;;;;1.50;1.40;;;;;;;5.54;100.00;95886.28;5077053;28;20228;-77
2022/11/20 00:08:56;;;;;;;1.40;1.30;;;;;;;5.56;100.00;95892.25;5080275;28;20205;-78
2022/11/20 00:11:24;;;;;;;1.40;1.20;;;;;;;5.57;100.00;95888.56;5096036;28;20221;-77
2022/11/20 00:13:54;;;;;;;1.40;1.20;;;;;;;5.51;100.00;95884.88;5087178;28;20220;-77
2022/11/20 00:16:24;;;;;;;1.77;1.20;;;;;;;5.51;100.00;95884.88;5089153;28;20201;-77
2022/11/20 00:18:52;;;;;;;1.20;1.10;;;;;;;5.54;100.00;95891.66;5089772;28;20236;-77
2022/11/20 00:21:21;;;;;;;1.53;1.40;;;;;;;5.51;100.00;95889.41;5086314;28;20221;-78
2022/11/20 00:23:50;;;;;;;1.90;1.50;;;;;;;5.54;100.00;95900.50;5098078;28;20259;-77
2022/11/20 00:26:20;;;;;;;1.87;1.40;;;;;;;5.52;100.00;95901.75;5081620;28;20212;-77
2022/11/20 00:28:52;;;;;;;1.70;1.43;;;;;;;5.50;100.00;95903.81;5105160;28;20200;-76
2022/11/20 00:31:20;;;;;;;1.73;1.20;;;;;;;5.45;100.00;95901.75;5087584;28;20209;-77
2022/11/20 00:33:47;;;;;;;1.30;1.20;;;;;;;5.47;100.00;95904.22;5087124;28;20216;-77
2022/11/20 00:36:16;;;;;;;1.43;1.20;;;;;;;5.49;100.00;95911.03;5084689;28;20242;-77
2022/11/20 00:38:44;;;;;;;1.90;1.40;;;;;;;5.50;100.00;95904.66;5088263;28;20208;-77
2022/11/20 00:41:14;;;;;;;1.40;1.30;;;;;;;5.51;100.00;95905.47;5081112;28;20228;-77
2022/11/20 00:43:42;;;;;;;1.30;1.20;;;;;;;5.55;100.00;95906.69;5090736;28;20196;-77
2022/11/20 00:46:14;;;;;;;3.33;1.50;;;;;;;5.53;100.00;95898.06;5086408;28;20196;-78
2022/11/20 00:48:41;;;;;;;1.73;1.50;;;;;;;5.54;100.00;95905.03;5085160;28;20212;-77
2022/11/20 00:51:09;;;;;;;1.83;1.50;;;;;;;5.58;100.00;95911.63;5088985;28;20211;-78
2022/11/20 00:53:36;;;;;;;2.00;1.37;;;;;;;5.61;100.00;95905.88;5087222;28;20217;-77
2022/11/20 00:56:05;;;;;;;2.53;1.40;;;;;;;5.63;100.00;95903.78;5082509;28;20192;-77
2022/11/20 00:58:37;;;;;;;1.80;1.30;;;;;;;5.65;100.00;95907.06;5082681;28;20201;-78
2022/11/20 01:01:07;;;;;;;3.03;1.40;;;;;;;5.60;100.00;95909.56;5088600;28;20292;-78
2022/11/20 01:03:35;;;;;;;1.70;1.17;;;;;;;5.55;100.00;95906.69;5093234;28;20210;-77
2022/11/20 01:06:03;;;;;;;1.70;1.43;;;;;;;5.53;100.00;95903.41;5091953;28;20212;-78
2022/11/20 01:08:34;;;;;;;1.50;1.33;;;;;;;5.54;100.00;95905.03;5078124;28;20287;-78
2022/11/20 01:11:02;;;;;;;1.53;1.40;;;;;;;5.59;100.00;95908.75;5106972;28;20229;-79
2022/11/20 01:13:40;;;;;;;1.97;1.40;;;;;;;5.62;100.00;95911.00;5086517;28;20263;-78
2022/11/20 01:16:12;;;;;;;2.63;1.13;;;;;;;5.56;100.00;95913.69;5091453;28;20235;-77
2022/11/20 01:18:42;;;;;;;2.60;1.40;;;;;;;5.50;100.00;95909.19;5081092;28;20275;-77
2022/11/20 01:21:11;;;;;;;1.50;1.30;;;;;;;5.45;100.00;95914.31;5084847;28;20209;-77
2022/11/20 01:23:41;;;;;;;2.20;1.53;;;;;;;5.37;100.00;95918.03;5081851;28;20205;-77
2022/11/20 01:26:11;;;;;;;2.57;1.50;;;;;;;5.38;100.00;95913.50;5086428;28;20201;-77
2022/11/20 01:28:38;;;;;;;2.17;1.20;;;;;;;5.34;100.00;95910.44;5087316;28;20201;-78
2022/11/20 01:31:14;;;;;;;2.07;1.40;;;;;;;5.37;100.00;95918.03;5074915;28;20204;-76
2022/11/20 01:33:42;;;;;;;1.80;1.20;;;;;;;5.37;100.00;95918.03;5090266;28;20222;-77
2022/11/20 01:36:10;;;;;;;1.43;1.30;;;;;;;5.38;100.00;95913.50;5089448;28;20201;-77
2022/11/20 01:38:37;;;;;;;1.40;1.30;;;;;;;5.30;100.00;95919.91;5083079;28;20209;-78
2022/11/20 01:41:05;;;;;;;1.43;1.20;;;;;;;5.34;100.00;95915.81;5084648;28;20197;-77
2022/11/20 01:43:31;;;;;;;2.53;1.20;;;;;;;5.31;100.00;95914.34;5090596;28;20260;-77
2022/11/20 01:46:15;;;;;;;1.30;1.10;;;;;;;5.34;100.00;95921.16;5081386;28;20201;-76
2022/11/20 01:48:50;;;;;;;1.53;1.10;;;;;;;5.32;100.00;95918.69;5085365;28;20201;-77
2022/11/20 01:51:24;;;;;;;1.53;1.20;;;;;;;5.33;100.00;95920.34;5087048;28;20211;-78
2022/11/20 01:53:53;;;;;;;1.33;1.10;;;;;;;5.22;100.00;95928.97;5085368;28;20213;-77
2022/11/20 01:56:21;;;;;;;1.40;1.30;;;;;;;5.14;100.00;95929.19;5080210;28;20300;-77
2022/11/20 01:58:52;;;;;;;1.60;1.50;;;;;;;5.07;100.00;95931.06;5088981;28;20249;-77
2022/11/20 02:01:21;;;;;;;2.67;1.23;;;;;;;5.08;100.00;95930.03;5089260;28;20202;-77
2022/11/20 02:03:49;;;;;;;1.83;1.50;;;;;;;5.12;100.00;95935.78;5097550;28;20201;-78
2022/11/20 02:06:21;;;;;;;1.30;1.20;;;;;;;5.16;100.00;95940.53;5104223;28;20196;-79
2022/11/20 02:08:48;;;;;;;1.57;1.40;;;;;;;5.12;100.00;95928.56;5090576;28;20201;-77
2022/11/20 02:11:15;;;;;;;2.47;1.57;;;;;;;5.09;100.00;95934.34;5090418;28;20265;-78
2022/11/20 02:13:44;;;;;;;1.83;1.40;;;;;;;5.07;100.00;95930.22;5095138;28;20281;-76
2022/11/20 02:16:16;;;;;;;1.20;1.10;;;;;;;5.06;100.00;95926.72;5091004;28;20205;-78
2022/11/20 02:18:46;;;;;;;3.00;1.30;;;;;;;5.05;100.00;95917.03;5084120;28;20205;-77
2022/11/20 02:21:28;;;;;;;2.60;1.40;;;;;;;5.12;100.00;95927.75;5100144;28;20257;-77
2022/11/20 02:24:01;;;;;;;2.57;1.47;;;;;;;5.16;100.00;95916.44;5100348;28;20200;-77
2022/11/20 02:26:31;;;;;;;1.23;1.13;;;;;;;5.15;100.00;95922.00;5090082;28;20279;-77
2022/11/20 02:29:01;;;;;;;1.67;1.47;;;;;;;5.09;100.00;95923.66;5087097;28;20205;-77
2022/11/20 02:31:28;;;;;;;1.53;1.17;;;;;;;5.04;100.00;95915.41;5087628;28;20291;-77
2022/11/20 02:33:57;;;;;;;1.90;1.33;;;;;;;5.04;100.00;95927.94;5096421;28;20223;-77
2022/11/20 02:36:27;;;;;;;1.83;1.23;;;;;;;5.07;100.00;95914.16;5098670;28;20236;-77
2022/11/20 02:38:55;;;;;;;3.00;1.30;;;;;;;5.12;100.00;95925.91;5097992;28;20228;-78
2022/11/20 02:41:31;;;;;;;1.60;1.30;;;;;;;5.14;100.00;95931.88;5089019;28;20261;-77
2022/11/20 02:43:58;;;;;;;2.03;1.30;;;;;;;5.15;100.00;95932.69;5091077;28;20250;-77
2022/11/20 02:46:25;;;;;;;3.77;1.33;;;;;;;5.16;100.00;95935.16;5091516;28;21256;-77
2022/11/20 02:48:52;;;;;;;1.73;1.57;;;;;;;5.18;100.00;95932.28;5090749;28;20209;-78
2022/11/20 02:51:19;;;;;;;1.30;1.20;;;;;;;5.16;100.00;95937.03;5090869;28;20203;-77
2022/11/20 02:53:46;;;;;;;1.70;1.40;;;;;;;5.10;100.00;95930.66;5086480;28;20217;-77
2022/11/20 02:56:13;;;;;;;1.50;1.40;;;;;;;5.02;100.00;95940.75;5104771;28;20188;-76
2022/11/20 02:58:41;;;;;;;2.03;1.60;;;;;;;4.98;100.00;95926.09;5094934;28;20214;-77
2022/11/20 03:01:08;;;;;;;1.70;1.60;;;;;;;4.97;100.00;95924.47;5091685;28;20223;-77
2022/11/20 03:03:36;;;;;;;1.30;1.20;;;;;;;4.93;100.00;95921.38;5087950;28;20208;-77
2022/11/20 03:06:03;;;;;;;2.53;1.40;;;;;;;5.05;100.00;95935.78;5089244;28;20223;-77
2022/11/20 03:08:30;;;;;;;2.17;1.60;;;;;;;5.01;100.00;95926.53;5105184;28;20232;-76
2022/11/20 03:10:57;;;;;;;1.20;1.10;;;;;;;5.05;100.00;95927.75;5104910;28;20237;-79
2022/11/20 03:13:26;;;;;;;1.30;1.20;;;;;;;5.14;100.00;95937.22;5089042;28;20221;-77
2022/11/20 03:15:54;;;;;;;2.30;1.50;;;;;;;5.10;100.00;95927.16;5087872;28;20340;-77
2022/11/20 03:18:21;;;;;;;2.47;1.27;;;;;;;5.16;100.00;95935.16;5099431;27;20512;-77
2022/11/20 03:20:49;;;;;;;2.17;1.30;;;;;;;5.22;100.00;95945.03;5099198;28;20208;-77
2022/11/20 03:23:16;;;;;;;2.90;1.30;;;;;;;5.15;100.00;95924.66;5081273;28;20193;-79
2022/11/20 03:25:43;;;;;;;1.40;1.30;;;;;;;5.22;100.00;95937.00;5076738;28;20228;-77
2022/11/20 03:28:10;;;;;;;2.23;1.30;;;;;;;5.14;100.00;95926.50;5089960;28;20201;-77
2022/11/20 03:30:37;;;;;;;1.50;1.40;;;;;;;5.18;100.00;95927.75;5088122;28;20197;-78
2022/11/20 03:33:08;;;;;;;1.60;1.50;;;;;;;5.20;100.00;95924.84;5092876;28;20196;-77
2022/11/20 03:35:35;;;;;;;2.93;1.60;;;;;;;5.22;100.00;95928.97;5091843;28;20284;-77
2022/11/20 03:38:02;;;;;;;1.67;1.53;;;;;;;5.23;100.00;95925.28;5084797;28;20215;-77
2022/11/20 03:40:29;;;;;;;1.77;1.60;;;;;;;5.25;100.00;95925.06;5089092;28;20209;-80
2022/11/20 03:42:56;;;;;;;1.93;1.50;;;;;;;5.23;100.00;95930.63;5086991;28;20209;-78
2022/11/20 03:45:23;;;;;;;1.57;1.47;;;;;;;5.20;100.00;95936.38;5088430;28;20213;-77
2022/11/20 03:47:50;;;;;;;1.60;1.50;;;;;;;5.12;100.00;95928.56;5090148;28;20197;-77
2022/11/20 03:50:18;;;;;;;1.80;1.70;;;;;;;5.13;100.00;95930.22;5092275;28;20233;-78
2022/11/20 03:52:45;;;;;;;2.80;1.97;;;;;;;5.13;100.00;95934.75;5081641;28;20204;-78
2022/11/20 03:55:12;;;;;;;1.97;1.63;;;;;;;5.19;100.00;95934.75;5077824;28;20229;-79
2022/11/20 03:57:39;;;;;;;2.23;1.70;;;;;;;5.23;100.00;95943.19;5088744;28;20205;-77
2022/11/20 04:00:08;;;;;;;2.87;2.00;;;;;;;5.21;100.00;95948.75;5083334;28;20200;-78
2022/11/20 04:02:35;;;;;;;2.97;2.27;;;;;;;5.19;100.00;95940.09;5097887;28;20205;-78
2022/11/20 04:05:02;;;;;;;3.00;1.97;;;;;;;5.16;100.00;95940.53;5089486;28;20212;-78
2022/11/20 04:07:31;;;;;;;3.90;2.27;;;;;;;5.12;100.00;95938.44;5086563;28;20201;-76
2022/11/20 04:09:59;;;;;;;2.60;1.80;;;;;;;5.16;100.00;95937.84;5090142;28;20232;-77
2022/11/20 04:12:26;;;;;;;2.70;2.13;;;;;;;5.15;100.00;95940.72;5093126;28;20197;-77
2022/11/20 04:14:53;;;;;;;2.40;1.70;;;;;;;5.06;100.00;95932.06;5094092;28;20273;-77
2022/11/20 04:17:20;;;;;;;4.27;2.30;;;;;;;5.02;100.00;95928.16;5091922;28;20211;-77
2022/11/20 04:19:47;;;;;;;2.50;2.10;;;;;;;5.01;100.00;95926.53;5091472;28;20192;-77
2022/11/20 04:22:15;;;;;;;3.30;2.17;;;;;;;5.02;100.00;95930.81;5093342;28;20207;-77
2022/11/20 04:24:43;;;;;;;3.00;2.30;;;;;;;4.99;100.00;95931.25;5102002;27;20205;-78
2022/11/20 04:27:10;;;;;;;4.23;2.30;;;;;;;5.06;100.00;95933.94;5088944;28;20197;-77
2022/11/20 04:29:37;;;;;;;2.47;1.83;;;;;;;4.98;100.00;95926.94;5087357;28;20305;-78
2022/11/20 04:32:04;;;;;;;2.50;2.30;;;;;;;4.99;100.00;95933.09;5087907;28;20192;-77
2022/11/20 04:34:31;;;;;;;2.40;2.00;;;;;;;4.98;100.00;95929.59;5089493;28;20256;-76
2022/11/20 04:36:58;;;;;;;3.00;2.50;;;;;;;4.98;100.00;95937.63;5085675;28;20204;-78
2022/11/20 04:39:25;;;;;;;2.33;2.10;;;;;;;4.97;100.00;95941.34;5085635;28;20209;-77
2022/11/20 04:42:28;;;;;;;2.30;2.10;;;;;;;4.97;100.00;95935.16;5087428;28;20201;-78
2022/11/20 04:44:40;;;;;;;3.17;2.20;;;;;;;5.00;100.00;95951.63;5084471;28;20189;-78
2022/11/20 04:47:07;;;;;;;12.97;8.43;;;;;;;5.05;100.00;95935.78;5080292;28;20201;-76
2022/11/20 04:49:34;;;;;;;4.30;3.00;;;;;;;5.08;100.00;95937.22;5084156;28;20243;-78
2022/11/20 04:52:01;;;;;;;5.23;3.13;;;;;;;5.14;100.00;95939.06;5084889;28;20205;-78
2022/11/20 04:54:28;;;;;;;3.60;2.97;;;;;;;5.17;100.00;95934.16;5084919;28;20220;-77
2022/11/20 04:56:56;;;;;;;3.43;2.50;;;;;;;5.20;100.00;95941.75;5086438;28;20224;-77
2022/11/20 04:59:23;;;;;;;2.57;2.23;;;;;;;5.24;100.00;95937.63;5084965;28;20288;-78
2022/11/20 05:01:50;;;;;;;2.40;2.20;;;;;;;5.29;100.00;95932.47;5091569;28;20193;-77
2022/11/20 05:04:18;;;;;;;3.87;2.47;;;;;;;5.28;100.00;95932.66;5088267;28;20228;-78
2022/11/20 05:06:45;;;;;;;2.67;2.20;;;;;;;5.30;100.00;95935.97;5082584;28;20197;-78
2022/11/20 05:09:12;;;;;;;2.77;2.17;;;;;;;5.32;100.00;95929.38;5103309;28;20312;-77
2022/11/20 05:11:39;;;;;;;2.60;2.20;;;;;;;5.32;100.00;95940.09;5087396;28;20231;-77
2022/11/20 05:14:08;;;;;;;2.83;2.03;;;;;;;5.35;100.00;95936.19;5082002;28;20266;-77
2022/11/20 05:16:35;;;;;;;2.40;2.10;;;;;;;5.37;100.00;95933.28;5085597;28;20197;-77
2022/11/20 05:19:03;;;;;;;3.53;2.37;;;;;;;5.39;100.00;95939.25;5082231;28;20221;-77
2022/11/20 05:21:31;;;;;;;4.30;2.10;;;;;;;5.32;100.00;95940.09;5081474;28;20193;-78
2022/11/20 05:23:59;;;;;;;2.90;2.30;;;;;;;5.35;100.00;95948.75;5081214;28;20204;-77
2022/11/20 05:26:26;;;;;;;3.60;2.30;;;;;;;5.35;100.00;95949.56;5088135;28;20197;-77
2022/11/20 05:28:53;;;;;;;3.53;2.63;;;;;;;5.31;100.00;95951.84;5092610;28;20204;-80
2022/11/20 05:31:24;;;;;;;5.53;2.70;;;;;;;5.26;100.00;95953.50;5082733;28;20200;-77
2022/11/20 05:33:51;;;;;;;3.50;2.90;;;;;;;5.17;100.00;95941.34;5092565;28;20257;-77
2022/11/20 05:36:18;;;;;;;3.03;2.43;;;;;;;5.11;100.00;95948.31;5087527;28;20202;-77
2022/11/20 05:38:46;;;;;;;3.33;2.77;;;;;;;5.08;100.00;95954.09;5087730;28;20209;-76
2022/11/20 05:41:15;;;;;;;3.30;2.60;;;;;;;5.06;100.00;95950.81;5096095;28;20211;-77
2022/11/20 05:43:43;;;;;;;2.87;2.57;;;;;;;5.01;100.00;95950.63;5096270;28;20226;-77
2022/11/20 05:46:13;;;;;;;3.57;2.90;;;;;;;5.04;100.00;95955.53;5097910;28;20193;-76
2022/11/20 05:48:43;;;;;;;3.30;2.77;;;;;;;5.03;100.00;95959.25;5089668;28;20205;-77
2022/11/20 05:51:13;;;;;;;4.00;2.70;;;;;;;5.01;100.00;95966.66;5091064;28;20207;-77
2022/11/20 05:53:41;;;;;;;2.87;2.47;;;;;;;4.96;100.00;95966.44;5099791;27;20194;-77
2022/11/20 05:56:11;;;;;;;3.87;2.00;;;;;;;4.99;100.00;95970.56;5097266;28;20224;-77
2022/11/20 05:58:38;;;;;;;2.80;2.40;;;;;;;5.02;100.00;95970.16;5095402;28;20207;-77
2022/11/20 06:01:08;;;;;;;4.03;2.63;;;;;;;5.08;100.00;95970.16;5088086;28;20209;-77
2022/11/20 06:03:35;;;;;;;2.10;1.80;;;;;;;5.14;100.00;95974.69;5088573;28;20262;-78
2022/11/20 06:06:05;;;;;;;2.10;1.90;;;;;;;5.17;100.00;95978.81;5078232;28;20205;-77
2022/11/20 06:08:32;;;;;;;1.90;1.60;;;;;;;5.17;100.00;95968.94;5097151;28;20207;-76
2022/11/20 06:10:59;;;;;;;2.20;1.70;;;;;;;5.17;100.00;95976.97;5092863;28;20232;-77
2022/11/20 06:13:26;;;;;;;2.10;1.63;;;;;;;5.12;100.00;95973.25;5094182;28;20239;-77
2022/11/20 06:15:54;;;;;;;2.13;1.63;;;;;;;5.13;100.00;95972.22;5096001;28;20224;-77
2022/11/20 06:18:21;;;;;;;2.33;1.50;;;;;;;5.07;100.00;95979.22;5098502;28;20216;-77
2022/11/20 06:20:49;;;;;;;7.17;2.07;;;;;;;5.12;100.00;95974.06;5095534;28;20201;-77
2022/11/20 06:23:17;;;;;;;3.07;2.60;;;;;;;5.08;100.00;95970.16;5096844;28;20232;-77
2022/11/20 06:25:44;;;;;;;1.90;1.60;;;;;;;5.05;100.00;95975.91;5084685;28;20201;-77
2022/11/20 06:28:11;;;;;;;1.73;1.57;;;;;;;5.04;100.00;95979.63;5088506;28;20268;-77
2022/11/20 06:30:45;;;;;;;1.97;1.40;;;;;;;5.03;100.00;95972.63;5090742;28;20204;-77
2022/11/20 06:33:12;;;;;;;2.73;1.90;;;;;;;5.04;100.00;95974.28;5086813;28;20208;-77
2022/11/20 06:35:39;;;;;;;2.33;2.00;;;;;;;4.93;100.00;95973.00;5083552;28;20239;-78
2022/11/20 06:38:06;;;;;;;3.07;1.60;;;;;;;4.89;100.00;95979.81;5088640;28;20204;-77
2022/11/20 06:40:35;;;;;;;1.73;1.50;;;;;;;4.90;100.00;95978.78;5087161;28;20208;-78
2022/11/20 06:43:02;;;;;;;2.00;1.60;;;;;;;4.88;100.00;95977.34;5090248;28;20209;-78
2022/11/20 06:45:29;;;;;;;1.80;1.60;;;;;;;4.93;100.00;95981.03;5090328;28;20193;-77
2022/11/20 06:47:58;;;;;;;1.80;1.70;;;;;;;4.98;100.00;95979.63;5078367;28;20197;-77
2022/11/20 06:50:25;;;;;;;1.70;1.60;;;;;;;5.01;100.00;95980.06;5089493;28;20232;-76
2022/11/20 06:52:52;;;;;;;2.17;1.97;;;;;;;4.98;100.00;95969.75;5078698;28;20247;-77
2022/11/20 06:55:19;;;;;;;3.03;1.70;;;;;;;5.03;100.00;95990.53;5078572;28;20213;-78
2022/11/20 06:57:48;;;;;;;2.03;1.93;;;;;;;5.03;100.00;95993.19;5084106;28;20201;-77
2022/11/20 07:00:16;;;;;;;2.23;1.73;;;;;;;5.04;100.00;95998.34;5090783;28;20198;-78
2022/11/20 07:02:44;;;;;;;2.00;1.80;;;;;;;4.97;100.00;95989.50;5082751;28;20346;-77
2022/11/20 07:05:11;;;;;;;2.23;2.03;;;;;;;5.02;100.00;95995.03;5090377;28;20211;-77
2022/11/20 07:07:39;;;;;;;1.70;1.60;;;;;;;5.06;100.00;95993.63;5087829;28;20222;-77
2022/11/20 07:10:10;;;;;;;1.67;1.57;;;;;;;5.10;100.00;96005.59;5094282;28;20225;-78
2022/11/20 07:12:40;;;;;;;1.90;1.67;;;;;;;5.09;100.00;96003.94;5088329;28;20342;-77
2022/11/20 07:15:10;;;;;;;3.77;2.97;;;;;;;5.17;100.00;96013.59;5090292;28;20304;-78
2022/11/20 07:17:37;;;;;;;3.30;2.20;;;;;;;5.11;100.00;96017.06;5099923;28;20374;-77
2022/11/20 07:20:05;;;;;;;4.27;3.40;;;;;;;5.11;100.00;96030.47;5089056;28;20204;-78
2022/11/20 07:22:31;;;;;;;2.83;2.50;;;;;;;5.05;100.00;96025.94;5087712;28;20228;-76
2022/11/20 07:24:58;;;;;;;3.17;2.50;;;;;;;5.05;100.00;96032.13;5093687;28;20201;-77
2022/11/20 07:27:25;;;;;;;3.13;2.47;;;;;;;5.08;100.00;96033.56;5089175;28;20228;-77
2022/11/20 07:29:52;;;;;;;4.77;4.27;;;;;;;5.13;100.00;96034.59;5100536;28;20269;-77
2022/11/20 07:32:21;;;;;;;1.90;1.60;;;;;;;5.17;100.00;96033.16;5089334;28;20234;-77
2022/11/20 07:34:49;;;;;;;1.60;1.50;;;;;;;5.15;100.00;96040.56;5088570;28;20220;-77
2022/11/20 07:37:16;;;;;;;4.27;2.60;;;;;;;5.17;100.00;96037.69;5081886;28;20204;-78
2022/11/20 07:39:43;;;;;;;2.10;1.90;;;;;;;5.14;100.00;96030.06;5081259;28;20197;-78
2022/11/20 07:42:12;;;;;;;2.43;2.10;;;;;;;5.13;100.00;96031.09;5077486;28;20201;-77
2022/11/20 07:44:39;;;;;;;4.77;2.20;;;;;;;5.13;100.00;96034.59;5101590;28;20304;-79
2022/11/20 07:47:08;;;;;;;2.57;2.20;;;;;;;5.18;100.00;96028.66;5079720;28;20220;-77
2022/11/20 07:49:36;;;;;;;3.20;1.80;;;;;;;5.25;100.00;96029.47;5070464;28;20229;-77
2022/11/20 07:52:03;;;;;;;3.03;2.00;;;;;;;5.25;100.00;96019.59;5086278;28;20221;-78
2022/11/20 07:54:30;;;;;;;2.10;1.80;;;;;;;5.38;100.00;96034.00;5088026;28;20215;-77
2022/11/20 07:56:57;;;;;;;1.80;1.70;;;;;;;5.42;100.00;96029.88;5084145;28;20222;-77
2022/11/20 07:59:25;;;;;;;3.50;2.00;;;;;;;5.38;100.00;96015.25;5099119;28;20208;-77
2022/11/20 08:01:52;;;;;;;2.83;2.00;;;;;;;5.48;100.00;96039.75;5077836;28;20204;-77
2022/11/20 08:04:20;;;;;;;3.20;2.70;;;;;;;5.52;100.00;96047.19;5088745;28;20208;-77
2022/11/20 08:06:49;;;;;;;4.07;3.30;;;;;;;5.44;100.00;96028.66;5081933;28;20463;-80
2022/11/20 08:09:19;;;;;;;5.23;4.47;;;;;;;5.49;100.00;96033.38;5078309;28;20217;-78
2022/11/20 08:14:29;;;;;;;4.37;3.73;;;;;;;5.63;100.00;96053.75;5060219;28;20203;-77
2022/11/20 08:16:56;;;;;;;6.40;3.50;;;;;;;5.59;100.00;96041.84;5080297;28;20205;-77
2022/11/20 08:19:23;;;;;;;5.50;4.20;;;;;;;5.58;100.00;96042.88;5084033;28;20287;-78
2022/11/20 08:21:52;;;;;;;7.07;5.70;;;;;;;5.66;100.00;96058.72;5087092;28;20250;-77
2022/11/20 08:24:19;;;;;;;5.63;4.47;;;;;;;5.61;100.00;96050.50;5081614;28;20270;-76
2022/11/20 08:26:49;;;;;;;4.67;3.67;;;;;;;5.70;100.00;96059.94;5080398;28;20276;-78
2022/11/20 08:29:16;;;;;;;4.57;3.90;;;;;;;5.74;100.00;96066.53;5084953;28;20229;-77
2022/11/20 08:31:43;;;;;;;5.17;3.70;;;;;;;5.67;100.00;96055.00;5086289;28;20292;-77
2022/11/20 08:34:13;;;;;;;4.67;3.40;;;;;;;5.69;100.00;96052.97;5084947;28;20206;-77
2022/11/20 08:36:40;;;;;;;4.33;3.33;;;;;;;5.67;100.00;96052.34;5072415;28;20224;-79
2022/11/20 08:39:09;;;;;;;3.77;2.93;;;;;;;5.75;100.00;96065.53;5086662;28;20217;-78
2022/11/20 08:41:36;;;;;;;3.20;2.67;;;;;;;5.80;100.00;96062.22;5088024;28;20201;-77
2022/11/20 08:44:06;;;;;;;4.37;3.10;;;;;;;5.88;100.00;96073.56;5089211;28;20205;-78
2022/11/20 08:46:36;;;;;;;3.40;3.10;;;;;;;5.91;100.00;96062.44;5079557;28;20208;-77
2022/11/20 08:49:03;;;;;;;4.73;3.43;;;;;;;5.94;100.00;96072.75;5087697;28;20228;-77
2022/11/20 08:51:31;;;;;;;4.23;3.03;;;;;;;6.01;100.00;96075.41;5086198;28;20205;-79
2022/11/20 08:53:58;;;;;;;3.93;2.90;;;;;;;6.05;100.00;96069.41;5094442;28;20200;-77
2022/11/20 08:56:27;;;;;;;4.20;3.47;;;;;;;6.12;100.00;96076.66;5073987;28;20258;-77
2022/11/20 08:58:54;;;;;;;5.20;3.97;;;;;;;6.15;100.00;96068.16;5086679;28;20208;-77
2022/11/20 09:01:22;;;;;;;3.30;3.00;;;;;;;6.16;100.00;96069.81;5078377;28;20209;-77
2022/11/20 09:03:50;;;;;;;4.40;4.00;;;;;;;6.25;100.00;96073.94;5096531;28;20521;-78
2022/11/20 09:06:18;;;;;;;4.93;3.97;;;;;;;6.23;100.00;96073.31;5079451;28;20201;-77
2022/11/20 09:08:45;;;;;;;3.73;2.90;;;;;;;6.07;100.00;96051.28;5092896;28;21044;-78
2022/11/20 09:11:13;;;;;;;5.63;2.50;;;;;;;6.06;100.00;96064.88;5090502;28;20244;-77
2022/11/20 09:13:41;;;;;;;3.80;3.00;;;;;;;6.05;100.00;96068.59;5088792;28;20205;-77
2022/11/20 09:16:10;;;;;;;3.30;2.43;;;;;;;6.05;100.00;96064.06;5083868;28;20229;-76
2022/11/20 09:18:38;;;;;;;3.43;2.70;;;;;;;6.11;100.00;96072.31;5086192;28;20291;-77
2022/11/20 09:21:07;;;;;;;2.83;2.43;;;;;;;6.10;100.00;96073.34;5106341;27;20228;-77
2022/11/20 09:23:36;;;;;;;4.03;3.10;;;;;;;6.12;100.00;96082.00;5087338;28;20211;-77
2022/11/20 09:26:05;;;;;;;4.03;3.40;;;;;;;6.05;100.00;96058.69;5091949;28;20208;-78
2022/11/20 09:28:33;;;;;;;4.30;3.50;;;;;;;6.16;100.00;96067.13;5082025;28;20200;-78
2022/11/20 09:31:01;;;;;;;3.50;3.13;;;;;;;6.32;100.00;96074.72;5102990;27;20212;-77
2022/11/20 09:33:28;;;;;;;6.27;5.60;;;;;;;6.36;100.00;96068.75;5084154;28;20205;-78
2022/11/20 09:35:57;;;;;;;6.33;4.57;;;;;;;6.36;100.00;96073.28;5092759;28;20238;-78
2022/11/20 09:38:24;;;;;;;4.83;3.47;;;;;;;6.30;100.00;96058.03;5088449;28;20201;-77
2022/11/20 09:40:57;;;;;;;3.30;3.00;;;;;;;6.44;100.00;96070.38;5082803;28;20246;-78
2022/11/20 09:43:34;;;;;;;3.47;2.60;;;;;;;6.38;100.00;96060.50;5100560;27;20193;-77
2022/11/20 09:46:14;;;;;;;3.17;2.87;;;;;;;6.37;100.00;96058.84;5084338;28;20263;-78
2022/11/20 09:48:57;;;;;;;3.07;2.60;;;;;;;6.42;100.00;96070.59;5089573;28;20213;-78
2022/11/20 09:51:35;;;;;;;3.67;2.70;;;;;;;6.48;100.00;96066.22;5104212;28;20617;-78
2022/11/20 09:54:17;;;;;;;3.20;2.90;;;;;;;6.64;100.00;96068.44;5092628;27;20201;-77
2022/11/20 09:56:48;;;;;;;4.80;3.90;;;;;;;6.80;100.00;96067.16;5104739;27;20212;-78
2022/11/20 09:59:31;;;;;;;4.93;3.83;;;;;;;6.97;100.00;96062.94;5085041;28;20217;-77
2022/11/20 10:02:04;;;;;;;9.23;4.83;;;;;;;7.14;100.00;96069.44;5085876;28;20255;-77
2022/11/20 10:04:34;;;;;;;6.33;4.00;;;;;;;7.27;100.00;96073.91;5100818;28;20208;-77
2022/11/20 10:07:08;;;;;;;3.40;2.63;;;;;;;7.40;100.00;96068.44;5086809;28;20205;-78
2022/11/20 10:09:38;;;;;;;2.30;2.10;;;;;;;7.46;100.00;96072.13;5084349;28;20212;-77
2022/11/20 10:12:18;;;;;;;3.10;2.00;;;;;;;7.58;100.00;96068.50;5085919;28;20221;-78
2022/11/20 10:15:04;;;;;;;3.00;2.20;;;;;;;7.74;100.00;96069.03;5103583;27;20213;-77
2022/11/20 10:18:00;;;;;;;2.17;1.90;;;;;;;7.97;100.00;96069.25;5087447;28;20199;-77
2022/11/20 10:20:36;;;;;;;2.50;2.20;;;;;;;8.29;100.00;96062.72;5087700;28;20239;-79
2022/11/20 10:23:46;;;;;;;2.37;1.70;;;;;;;8.59;100.00;96070.09;5085953;28;20211;-77
2022/11/20 10:26:23;;;;;;;1.70;1.40;;;;;;;8.85;100.00;96067.06;5080930;28;20236;-78
2022/11/20 10:29:11;;;;;;;1.97;1.77;;;;;;;9.03;100.00;96072.44;5087608;28;20307;-79
2022/11/20 10:31:41;;;;;;;3.53;1.93;;;;;;;9.06;100.00;96065.78;5083631;28;20193;-79
2022/11/20 10:34:21;;;;;;;2.67;1.90;;;;;;;9.31;100.00;96060.25;5102921;27;20205;-78
2022/11/20 10:36:55;;;;;;;2.00;1.53;;;;;;;9.54;100.00;96059.47;5087576;28;20213;-79
2022/11/20 10:39:32;;;;;;;2.07;1.63;;;;;;;9.42;100.00;96062.16;5087269;28;20200;-78
2022/11/20 10:42:02;;;;;;;1.97;1.80;;;;;;;9.27;100.00;96054.47;5089917;28;20255;-80
2022/11/20 10:47:17;;;;;;;3.63;1.80;;;;;;;9.11;100.00;96055.13;5088866;28;20209;-78
2022/11/20 10:49:50;;;;;;;2.07;1.87;;;;;;;9.27;100.00;96056.38;5094500;28;20264;-79
2022/11/20 10:52:26;;;;;;;1.80;1.70;;;;;;;9.55;100.00;96051.19;5097576;28;20220;-79
2022/11/20 10:55:00;;;;;;;2.37;1.93;;;;;;;9.57;100.00;96034.78;5088033;28;20295;-79
2022/11/20 10:57:44;;;;;;;1.87;1.70;;;;;;;9.34;100.00;96038.25;5088246;28;20225;-78
2022/11/20 11:00:16;;;;;;;2.40;1.70;;;;;;;9.38;100.00;96034.84;5085915;28;20242;-77
2022/11/20 11:02:49;;;;;;;2.90;1.90;;;;;;;9.38;100.00;96039.41;5087167;28;20216;-79
2022/11/20 11:05:30;;;;;;;2.57;1.77;;;;;;;9.61;100.00;96039.47;5092634;28;20212;-78
2022/11/20 11:07:59;;;;;;;1.80;1.70;;;;;;;9.62;100.00;96033.00;5097382;27;20209;-77
2022/11/20 11:10:34;;;;;;;2.43;2.10;;;;;;;9.95;100.00;96023.59;5088863;28;20226;-78
2022/11/20 11:13:01;;;;;;;1.97;1.80;;;;;;;9.67;100.00;96017.00;5083640;28;20196;-79
2022/11/20 11:15:31;;;;;;;4.40;1.87;;;;;;;9.55;100.00;96015.31;5088078;28;20219;-78
2022/11/20 11:17:58;;;;;;;4.67;2.10;;;;;;;9.17;100.00;96004.94;5085768;28;20208;-79
2022/11/20 11:20:27;;;;;;;2.33;2.13;;;;;;;8.81;100.00;96005.84;5085130;28;20193;-81
2022/11/20 11:22:57;;;;;;;2.70;2.27;;;;;;;9.10;100.00;95999.66;5089395;28;20195;-78
2022/11/20 11:25:27;;;;;;;2.93;2.00;;;;;;;9.59;100.00;95998.47;5090699;28;20200;-78
2022/11/20 11:27:57;;;;;;;2.37;1.97;;;;;;;9.71;100.00;96004.66;5088532;28;20215;-79
2022/11/20 11:30:26;;;;;;;3.23;1.90;;;;;;;9.53;100.00;95988.59;5098633;28;20307;-78
2022/11/20 11:33:05;;;;;;;2.10;1.70;;;;;;;9.32;100.00;95981.06;5096495;28;20202;-78
2022/11/20 11:35:34;;;;;;;2.20;1.83;;;;;;;9.34;100.00;95979.78;5101831;28;20218;-79
2022/11/20 11:38:08;;;;;;;1.80;1.70;;;;;;;9.27;100.00;95984.44;5083117;28;20197;-78
2022/11/20 11:40:38;;;;;;;2.33;2.03;;;;;;;9.24;100.00;95973.31;5082883;28;20300;-80
2022/11/20 11:45:04;;;;;;;2.07;1.70;;;;;;;9.24;100.00;95970.63;5080399;28;20212;-79
2022/11/20 11:45:55;;;;;;;4.20;1.90;;;;;;;9.18;100.00;95966.16;5081624;28;20205;-78
2022/11/20 11:48:23;;;;;;;2.80;1.97;;;;;;;9.19;100.00;95962.41;5088468;28;20311;-79
2022/11/20 11:50:53;;;;;;;2.33;1.90;;;;;;;9.18;100.00;95964.28;5089774;28;20322;-79